^^
Station Historical Data
Daily Summary for April 13, 2017 Units:  English    Metric   Both
« Previous Day
Next Day »
Daily Weekly Monthly Yearly Custom
  High: Low: Average:
Temperature: 61.1 °F 45.3 °F 52.7 °F
Dew Point: 44.3 °F 29.8 °F 34.1 °F
Humidity: 75% 35% 51%
Wind Speed: 7.0mph 0.0mph 1.9mph
Wind Gust: 15.0mph - -
Wind- - WSW
Pressure: 30.38 in 30.28 in -
Precipitation: 0.00 in    
Historical Graphs
 
 
Tabular Data for April 13, 2017
Time Temperature Dew Point Pressure Wind Wind Speed Wind Gust Humidity Rainfall Rate (Hourly) Conditions
00:00 54.6 °F 44.3 °F 30.28 in NNW 1.0 mph 8.0 mph 68% 0.00 in RA
00:15 53.6 °F 43.7 °F 30.29 in Calm   7.0 mph 69% 0.00 in CLR
00:30 52.8 °F 42.9 °F 30.29 in Calm   6.0 mph 69% 0.00 in CLR
01:00 51.6 °F 41.8 °F 30.30 in Calm   7.0 mph 69% 0.00 in CLR
02:15 49.2 °F 40.9 °F 30.30 in NNW 1.0 mph 8.0 mph 73% 0.00 in CLR
02:30 48.9 °F 40.6 °F 30.30 in Calm   8.0 mph 73% 0.00 in CLR
02:45 48.3 °F 40.7 °F 30.31 in North 1.0 mph 4.0 mph 75% 0.00 in CLR
03:00 48.5 °F 36.8 °F 30.32 in NNE 2.0 mph 14.0 mph 64% 0.00 in CLR
03:15 48.0 °F 35.6 °F 30.32 in NNW 3.0 mph 10.0 mph 62% 0.00 in CLR
03:30 47.5 °F 35.1 °F 30.31 in NNW 3.0 mph 15.0 mph 62% 0.00 in CLR
03:45 47.0 °F 35.4 °F 30.31 in NNE 1.0 mph 7.0 mph 64% 0.00 in CLR
04:00 46.7 °F 35.2 °F 30.31 in Calm   9.0 mph 64% 0.00 in CLR
04:15 46.4 °F 35.3 °F 30.32 in Calm   7.0 mph 65% 0.00 in CLR
04:30 46.3 °F 35.2 °F 30.31 in NNW 1.0 mph 6.0 mph 65% 0.00 in CLR
04:45 46.3 °F 35.2 °F 30.31 in NNW 1.0 mph 10.0 mph 65% 0.00 in CLR
05:15 46.3 °F 34.8 °F 30.32 in NW 2.0 mph 10.0 mph 64% 0.00 in CLR
05:30 46.2 °F 34.7 °F 30.32 in East 2.0 mph 8.0 mph 64% 0.00 in CLR
05:45 45.9 °F 34.8 °F 30.32 in South 2.0 mph 7.0 mph 65% 0.00 in CLR
06:00 45.9 °F 34.8 °F 30.33 in East 1.0 mph 6.0 mph 65% 0.00 in CLR
06:15 45.7 °F 35.0 °F 30.34 in East 1.0 mph 9.0 mph 66% 0.00 in CLR
06:30 45.3 °F 35.0 °F 30.34 in SSE 1.0 mph 5.0 mph 67% 0.00 in CLR
06:45 45.4 °F 35.1 °F 30.35 in West 1.0 mph 9.0 mph 67% 0.00 in CLR
07:00 45.4 °F 34.7 °F 30.35 in ESE 2.0 mph 6.0 mph 66% 0.00 in CLR
07:15 45.5 °F 34.4 °F 30.35 in WSW 2.0 mph 9.0 mph 65% 0.00 in CLR
07:30 45.6 °F 34.1 °F 30.36 in ENE 3.0 mph 8.0 mph 64% 0.00 in CLR
07:45 45.6 °F 33.7 °F 30.36 in SSW 5.0 mph 12.0 mph 63% 0.00 in CLR
08:00 45.6 °F 33.7 °F 30.36 in NNW 3.0 mph 10.0 mph 63% 0.00 in CLR
08:15 45.8 °F 33.9 °F 30.36 in NW 1.0 mph 12.0 mph 63% 0.00 in CLR
08:30 46.7 °F 34.0 °F 30.37 in North 2.0 mph 8.0 mph 61% 0.00 in CLR
08:45 47.6 °F 33.5 °F 30.36 in North 3.0 mph 9.0 mph 58% 0.00 in CLR
09:00 48.1 °F 33.6 °F 30.36 in NNW 5.0 mph 10.0 mph 57% 0.00 in CLR
09:15 48.2 °F 33.3 °F 30.37 in NNE 3.0 mph 12.0 mph 56% 0.00 in CLR
09:30 49.1 °F 34.1 °F 30.37 in North 3.0 mph 10.0 mph 56% 0.00 in CLR
09:45 48.7 °F 33.7 °F 30.38 in NW 5.0 mph 12.0 mph 56% 0.00 in CLR
10:00 49.2 °F 33.3 °F 30.37 in NNW 5.0 mph 12.0 mph 54% 0.00 in CLR
10:15 48.4 °F 32.5 °F 30.37 in NNW 5.0 mph 14.0 mph 54% 0.00 in CLR
10:30 49.2 °F 33.3 °F 30.37 in NNE 5.0 mph 10.0 mph 54% 0.00 in CLR
10:45 49.7 °F 32.8 °F 30.37 in NW 3.0 mph 12.0 mph 52% 0.00 in CLR
11:00 50.6 °F 33.1 °F 30.37 in NNW 6.0 mph 12.0 mph 51% 0.00 in CLR
11:15 51.2 °F 32.7 °F 30.37 in NNW 3.0 mph 12.0 mph 49% 0.00 in CLR
11:30 51.3 °F 32.7 °F 30.37 in NNW 6.0 mph 13.0 mph 49% 0.00 in CLR
11:45 51.8 °F 31.7 °F 30.36 in NNW 7.0 mph 15.0 mph 46% 0.00 in CLR
12:00 53.1 °F 33.4 °F 30.35 in North 5.0 mph 12.0 mph 47% 0.00 in CLR
12:15 53.2 °F 33.0 °F 30.35 in WNW 5.0 mph 12.0 mph 46% 0.00 in CLR
12:30 53.4 °F 33.1 °F 30.35 in NNW 3.0 mph 10.0 mph 46% 0.00 in CLR
12:45 54.1 °F 33.2 °F 30.35 in NNE 2.0 mph 12.0 mph 45% 0.00 in CLR
13:00 54.7 °F 33.2 °F 30.35 in NW 1.0 mph 9.0 mph 44% 0.00 in CLR
13:15 55.5 °F 33.9 °F 30.35 in NNW 3.0 mph 9.0 mph 44% 0.00 in CLR
13:30 56.1 °F 33.3 °F 30.34 in NNW 3.0 mph 8.0 mph 42% 0.00 in CLR
13:45 56.5 °F 33.7 °F 30.34 in NNW 5.0 mph 10.0 mph 42% 0.00 in CLR
14:00 57.1 °F 33.6 °F 30.34 in NW 3.0 mph 12.0 mph 41% 0.00 in CLR
14:15 58.0 °F 33.8 °F 30.34 in NNE 5.0 mph 13.0 mph 40% 0.00 in CLR
14:30 58.0 °F 33.1 °F 30.33 in North 6.0 mph 9.0 mph 39% 0.00 in CLR
14:45 58.6 °F 33.7 °F 30.33 in NW 2.0 mph 10.0 mph 39% 0.00 in CLR
15:00 59.4 °F 33.7 °F 30.32 in Calm   12.0 mph 38% 0.00 in CLR
15:15 60.2 °F 33.8 °F 30.32 in North 2.0 mph 10.0 mph 37% 0.00 in CLR
15:30 60.5 °F 34.1 °F 30.31 in NW 1.0 mph 8.0 mph 37% 0.00 in CLR
15:45 60.0 °F 33.6 °F 30.31 in WNW 3.0 mph 9.0 mph 37% 0.00 in CLR
16:00 61.1 °F 33.9 °F 30.31 in Calm   8.0 mph 36% 0.00 in CLR
16:15 61.0 °F 33.1 °F 30.30 in NW 3.0 mph 9.0 mph 35% 0.00 in CLR
16:30 60.8 °F 33.7 °F 30.31 in WNW 2.0 mph 9.0 mph 36% 0.00 in CLR
16:45 60.8 °F 33.0 °F 30.30 in North 1.0 mph 8.0 mph 35% 0.00 in CLR
17:00 60.7 °F 33.6 °F 30.31 in North 1.0 mph 8.0 mph 36% 0.00 in CLR
17:15 61.1 °F 33.2 °F 30.31 in NNE 2.0 mph 8.0 mph 35% 0.00 in CLR
17:30 60.7 °F 32.9 °F 30.31 in NNW 1.0 mph 8.0 mph 35% 0.00 in CLR
17:45 60.4 °F 32.6 °F 30.30 in Calm   8.0 mph 35% 0.00 in CLR
18:00 60.1 °F 32.3 °F 30.31 in NNW 1.0 mph 6.0 mph 35% 0.00 in CLR
18:15 59.8 °F 32.8 °F 30.31 in Calm   3.0 mph 36% 0.00 in CLR
18:30 59.1 °F 32.9 °F 30.32 in Calm   5.0 mph 37% 0.00 in CLR
18:45 58.8 °F 34.5 °F 30.32 in Calm   5.0 mph 40% 0.00 in CLR
19:00 58.1 °F 35.1 °F 30.32 in Calm   2.0 mph 42% 0.00 in CLR
19:15 57.5 °F 35.2 °F 30.33 in Calm   1.0 mph 43% 0.00 in BKN
19:30 57.4 °F 35.6 °F 30.34 in NNW 1.0 mph 4.0 mph 44% 0.00 in BKN
19:45 57.2 °F 34.8 °F 30.34 in NNW 1.0 mph 6.0 mph 43% 0.00 in BKN
20:00 56.8 °F 33.3 °F 30.34 in Calm   7.0 mph 41% 0.00 in BKN
20:15 56.3 °F 32.9 °F 30.35 in Calm   6.0 mph 41% 0.00 in BKN
20:30 55.9 °F 32.5 °F 30.36 in North 1.0 mph 5.0 mph 41% 0.00 in BKN
20:45 55.4 °F 32.1 °F 30.36 in NNE 1.0 mph 7.0 mph 41% 0.00 in BKN
21:00 55.0 °F 31.7 °F 30.36 in Calm   4.0 mph 41% 0.00 in BKN
21:15 54.7 °F 32.0 °F 30.36 in Calm   3.0 mph 42% 0.00 in SCT
21:30 54.3 °F 31.7 °F 30.36 in North 1.0 mph 4.0 mph 42% 0.00 in SCT
21:45 53.9 °F 31.3 °F 30.36 in Calm   3.0 mph 42% 0.00 in SCT
22:00 53.4 °F 30.3 °F 30.36 in Calm   3.0 mph 41% 0.00 in SCT
22:15 53.2 °F 30.1 °F 30.37 in Calm   5.0 mph 41% 0.00 in BKN
22:30 52.9 °F 29.8 °F 30.37 in North 1.0 mph 4.0 mph 41% 0.00 in BKN
22:45 52.4 °F 31.1 °F 30.37 in Calm   4.0 mph 44% 0.00 in BKN
23:00 51.8 °F 31.1 °F 30.37 in Calm   2.0 mph 45% 0.00 in BKN
23:15 51.3 °F 31.7 °F 30.38 in Calm   3.0 mph 47% 0.00 in CLR
23:30 50.9 °F 31.4 °F 30.38 in Calm   3.0 mph 47% 0.00 in CLR
23:45 50.4 °F 30.9 °F 30.38 in Calm   2.0 mph 47% 0.00 in CLR
TarryTown NY Weather
Compliments of Weather Underground - 1.5 mb